sensor_id;sensor_type;location;lat;lon;timestamp;temperature;humidity
23186;DHT22;11761;51.324;4.590;2023-03-01T00:07:57;-3.30;99.90
23186;DHT22;11761;51.324;4.590;2023-03-01T00:10:24;-3.30;99.90
23186;DHT22;11761;51.324;4.590;2023-03-01T00:12:51;-3.30;99.90
23186;DHT22;11761;51.324;4.590;2023-03-01T00:15:17;-3.30;99.90
23186;DHT22;11761;51.324;4.590;2023-03-01T00:17:43;-3.30;99.90
23186;DHT22;11761;51.324;4.590;2023-03-01T00:20:12;-3.30;99.90
23186;DHT22;11761;51.324;4.590;2023-03-01T00:22:38;-3.30;99.90
23186;DHT22;11761;51.324;4.590;2023-03-01T00:25:05;-3.30;99.90
23186;DHT22;11761;51.324;4.590;2023-03-01T00:27:31;-3.30;99.90
23186;DHT22;11761;51.324;4.590;2023-03-01T00:29:57;-3.30;99.90
23186;DHT22;11761;51.324;4.590;2023-03-01T00:32:24;-3.40;99.90
23186;DHT22;11761;51.324;4.590;2023-03-01T00:34:50;-3.40;99.90
23186;DHT22;11761;51.324;4.590;2023-03-01T00:37:22;-3.40;99.90
23186;DHT22;11761;51.324;4.590;2023-03-01T00:39:48;-3.50;99.90
23186;DHT22;11761;51.324;4.590;2023-03-01T00:42:15;-3.40;99.90
23186;DHT22;11761;51.324;4.590;2023-03-01T00:44:42;-3.40;99.90
23186;DHT22;11761;51.324;4.590;2023-03-01T00:47:08;-3.50;99.90
23186;DHT22;11761;51.324;4.590;2023-03-01T00:49:35;-3.50;99.90
23186;DHT22;11761;51.324;4.590;2023-03-01T00:52:01;-3.50;99.90
23186;DHT22;11761;51.324;4.590;2023-03-01T00:54:27;-3.50;99.90
23186;DHT22;11761;51.324;4.590;2023-03-01T00:56:54;-3.50;99.90
23186;DHT22;11761;51.324;4.590;2023-03-01T00:59:20;-3.40;99.90
23186;DHT22;11761;51.324;4.590;2023-03-01T01:01:46;-3.50;99.90
23186;DHT22;11761;51.324;4.590;2023-03-01T01:04:13;-3.50;99.90
23186;DHT22;11761;51.324;4.590;2023-03-01T01:14:08;-3.50;99.90
23186;DHT22;11761;51.324;4.590;2023-03-01T01:16:35;-3.50;99.90
23186;DHT22;11761;51.324;4.590;2023-03-01T01:19:01;-3.60;99.90
23186;DHT22;11761;51.324;4.590;2023-03-01T01:21:28;-3.70;99.90
23186;DHT22;11761;51.324;4.590;2023-03-01T01:23:55;-3.70;99.90
23186;DHT22;11761;51.324;4.590;2023-03-01T01:26:32;-3.70;99.90
23186;DHT22;11761;51.324;4.590;2023-03-01T01:28:59;-3.70;99.90
23186;DHT22;11761;51.324;4.590;2023-03-01T01:31:27;-3.70;99.90
23186;DHT22;11761;51.324;4.590;2023-03-01T01:33:54;-3.70;99.90
23186;DHT22;11761;51.324;4.590;2023-03-01T01:36:21;-3.70;99.90
23186;DHT22;11761;51.324;4.590;2023-03-01T01:38:47;-3.70;99.90
23186;DHT22;11761;51.324;4.590;2023-03-01T01:41:14;-3.70;99.90
23186;DHT22;11761;51.324;4.590;2023-03-01T01:43:43;-3.70;99.90
23186;DHT22;11761;51.324;4.590;2023-03-01T01:49:00;-3.80;99.90
23186;DHT22;11761;51.324;4.590;2023-03-01T01:51:32;-3.80;99.90
23186;DHT22;11761;51.324;4.590;2023-03-01T01:54:10;-3.80;99.90
23186;DHT22;11761;51.324;4.590;2023-03-01T01:56:40;-3.80;99.90
23186;DHT22;11761;51.324;4.590;2023-03-01T01:59:09;-3.80;99.90
23186;DHT22;11761;51.324;4.590;2023-03-01T02:01:35;-3.80;99.90
23186;DHT22;11761;51.324;4.590;2023-03-01T02:04:01;-3.80;99.90
23186;DHT22;11761;51.324;4.590;2023-03-01T02:06:49;-3.90;99.90
23186;DHT22;11761;51.324;4.590;2023-03-01T02:09:19;-3.90;99.90
23186;DHT22;11761;51.324;4.590;2023-03-01T02:11:47;-3.90;99.90
23186;DHT22;11761;51.324;4.590;2023-03-01T02:14:14;-4.00;99.90
23186;DHT22;11761;51.324;4.590;2023-03-01T02:16:41;-3.90;99.90
23186;DHT22;11761;51.324;4.590;2023-03-01T02:19:09;-3.90;99.90
23186;DHT22;11761;51.324;4.590;2023-03-01T02:22:11;-3.90;99.90
23186;DHT22;11761;51.324;4.590;2023-03-01T02:24:56;-3.90;99.90
23186;DHT22;11761;51.324;4.590;2023-03-01T02:27:31;-4.00;99.90
23186;DHT22;11761;51.324;4.590;2023-03-01T02:29:59;-4.00;99.90
23186;DHT22;11761;51.324;4.590;2023-03-01T02:32:25;-4.00;99.90
23186;DHT22;11761;51.324;4.590;2023-03-01T02:34:53;-4.00;99.90
23186;DHT22;11761;51.324;4.590;2023-03-01T02:37:21;-4.00;99.90
23186;DHT22;11761;51.324;4.590;2023-03-01T02:39:58;-4.00;99.90
23186;DHT22;11761;51.324;4.590;2023-03-01T02:42:31;-4.10;99.90
23186;DHT22;11761;51.324;4.590;2023-03-01T02:45:00;-4.10;99.90
23186;DHT22;11761;51.324;4.590;2023-03-01T02:47:26;-4.00;99.90
23186;DHT22;11761;51.324;4.590;2023-03-01T02:49:52;-4.00;99.90
23186;DHT22;11761;51.324;4.590;2023-03-01T02:52:40;-4.00;99.90
23186;DHT22;11761;51.324;4.590;2023-03-01T02:55:17;-4.00;99.90
23186;DHT22;11761;51.324;4.590;2023-03-01T02:57:45;-4.10;99.90
23186;DHT22;11761;51.324;4.590;2023-03-01T03:00:19;-4.10;99.90
23186;DHT22;11761;51.324;4.590;2023-03-01T03:02:51;-4.10;99.90
23186;DHT22;11761;51.324;4.590;2023-03-01T03:05:20;-4.10;99.90
23186;DHT22;11761;51.324;4.590;2023-03-01T03:07:48;-4.20;99.90
23186;DHT22;11761;51.324;4.590;2023-03-01T03:10:21;-4.10;99.90
23186;DHT22;11761;51.324;4.590;2023-03-01T03:12:55;-4.20;99.90
23186;DHT22;11761;51.324;4.590;2023-03-01T03:15:23;-4.20;99.90
23186;DHT22;11761;51.324;4.590;2023-03-01T03:17:51;-4.20;99.90
23186;DHT22;11761;51.324;4.590;2023-03-01T03:20:20;-4.20;99.90
23186;DHT22;11761;51.324;4.590;2023-03-01T03:22:49;-4.20;99.90
23186;DHT22;11761;51.324;4.590;2023-03-01T03:25:18;-4.20;99.90
23186;DHT22;11761;51.324;4.590;2023-03-01T03:27:47;-4.30;99.90
23186;DHT22;11761;51.324;4.590;2023-03-01T03:30:16;-4.20;99.90
23186;DHT22;11761;51.324;4.590;2023-03-01T03:32:44;-4.20;99.90
23186;DHT22;11761;51.324;4.590;2023-03-01T03:35:27;-4.20;99.90
23186;DHT22;11761;51.324;4.590;2023-03-01T03:37:57;-4.20;99.90
23186;DHT22;11761;51.324;4.590;2023-03-01T03:40:37;-4.30;99.90
23186;DHT22;11761;51.324;4.590;2023-03-01T03:43:04;-4.30;99.90
23186;DHT22;11761;51.324;4.590;2023-03-01T03:45:31;-4.30;99.90
23186;DHT22;11761;51.324;4.590;2023-03-01T03:48:00;-4.30;99.90
23186;DHT22;11761;51.324;4.590;2023-03-01T03:50:26;-4.30;99.90
23186;DHT22;11761;51.324;4.590;2023-03-01T03:52:52;-4.30;99.90
23186;DHT22;11761;51.324;4.590;2023-03-01T03:55:18;-4.30;99.90
23186;DHT22;11761;51.324;4.590;2023-03-01T03:57:47;-4.30;99.90
23186;DHT22;11761;51.324;4.590;2023-03-01T04:00:19;-4.30;99.90
23186;DHT22;11761;51.324;4.590;2023-03-01T04:02:46;-4.30;99.90
23186;DHT22;11761;51.324;4.590;2023-03-01T04:05:15;-4.30;99.90
23186;DHT22;11761;51.324;4.590;2023-03-01T04:07:42;-4.30;99.90
23186;DHT22;11761;51.324;4.590;2023-03-01T04:10:12;-4.30;99.90
23186;DHT22;11761;51.324;4.590;2023-03-01T04:12:38;-4.30;99.90
23186;DHT22;11761;51.324;4.590;2023-03-01T04:15:06;-4.30;99.90
23186;DHT22;11761;51.324;4.590;2023-03-01T04:21:19;-4.30;99.90
23186;DHT22;11761;51.324;4.590;2023-03-01T04:23:46;-4.30;99.90
23186;DHT22;11761;51.324;4.590;2023-03-01T04:56:39;-4.30;99.90
23186;DHT22;11761;51.324;4.590;2023-03-01T05:15:10;-4.30;99.90
23186;DHT22;11761;51.324;4.590;2023-03-01T05:17:36;-4.30;99.90
23186;DHT22;11761;51.324;4.590;2023-03-01T05:20:02;-4.30;99.90
23186;DHT22;11761;51.324;4.590;2023-03-01T05:22:33;-4.30;99.90
23186;DHT22;11761;51.324;4.590;2023-03-01T05:24:59;-4.30;99.90
23186;DHT22;11761;51.324;4.590;2023-03-01T05:27:26;-4.30;99.90
23186;DHT22;11761;51.324;4.590;2023-03-01T05:29:52;-4.30;99.90
23186;DHT22;11761;51.324;4.590;2023-03-01T05:32:18;-4.30;99.90
23186;DHT22;11761;51.324;4.590;2023-03-01T05:34:44;-4.30;99.90
23186;DHT22;11761;51.324;4.590;2023-03-01T05:37:13;-4.30;99.90
23186;DHT22;11761;51.324;4.590;2023-03-01T05:39:39;-4.30;99.90
23186;DHT22;11761;51.324;4.590;2023-03-01T05:42:10;-4.40;99.90
23186;DHT22;11761;51.324;4.590;2023-03-01T05:44:36;-4.40;99.90
23186;DHT22;11761;51.324;4.590;2023-03-01T05:47:03;-4.50;99.90
23186;DHT22;11761;51.324;4.590;2023-03-01T05:49:29;-4.50;99.90
23186;DHT22;11761;51.324;4.590;2023-03-01T05:51:55;-4.40;99.90
23186;DHT22;11761;51.324;4.590;2023-03-01T05:54:22;-4.30;99.90
23186;DHT22;11761;51.324;4.590;2023-03-01T05:56:48;-4.40;99.90
23186;DHT22;11761;51.324;4.590;2023-03-01T05:59:14;-4.40;99.90
23186;DHT22;11761;51.324;4.590;2023-03-01T06:01:42;-4.50;99.90
23186;DHT22;11761;51.324;4.590;2023-03-01T06:04:08;-4.40;99.90
23186;DHT22;11761;51.324;4.590;2023-03-01T06:06:36;-4.40;99.90
23186;DHT22;11761;51.324;4.590;2023-03-01T06:09:06;-4.30;99.90
23186;DHT22;11761;51.324;4.590;2023-03-01T06:11:36;-4.30;99.90
23186;DHT22;11761;51.324;4.590;2023-03-01T06:14:02;-4.30;99.90
23186;DHT22;11761;51.324;4.590;2023-03-01T06:16:28;-4.30;99.90
23186;DHT22;11761;51.324;4.590;2023-03-01T06:18:58;-4.30;99.90
23186;DHT22;11761;51.324;4.590;2023-03-01T06:21:24;-4.20;99.90
23186;DHT22;11761;51.324;4.590;2023-03-01T06:23:50;-4.30;99.90
23186;DHT22;11761;51.324;4.590;2023-03-01T06:26:17;-4.30;99.90
23186;DHT22;11761;51.324;4.590;2023-03-01T06:28:44;-4.20;99.90
23186;DHT22;11761;51.324;4.590;2023-03-01T06:31:11;-4.20;99.90
23186;DHT22;11761;51.324;4.590;2023-03-01T06:33:37;-4.20;99.90
23186;DHT22;11761;51.324;4.590;2023-03-01T06:36:04;-4.10;99.90
23186;DHT22;11761;51.324;4.590;2023-03-01T06:38:30;-4.10;99.90
23186;DHT22;11761;51.324;4.590;2023-03-01T06:40:56;-4.10;99.90
23186;DHT22;11761;51.324;4.590;2023-03-01T06:43:23;-4.00;99.90
23186;DHT22;11761;51.324;4.590;2023-03-01T06:45:49;-4.00;99.90
23186;DHT22;11761;51.324;4.590;2023-03-01T06:48:16;-3.90;99.90
23186;DHT22;11761;51.324;4.590;2023-03-01T06:50:42;-3.80;99.90
23186;DHT22;11761;51.324;4.590;2023-03-01T06:53:08;-3.70;99.90
23186;DHT22;11761;51.324;4.590;2023-03-01T06:55:35;-3.70;99.90
23186;DHT22;11761;51.324;4.590;2023-03-01T06:58:02;-3.60;99.90
23186;DHT22;11761;51.324;4.590;2023-03-01T07:00:29;-3.60;99.90
23186;DHT22;11761;51.324;4.590;2023-03-01T07:02:59;-3.50;99.90
23186;DHT22;11761;51.324;4.590;2023-03-01T07:39:57;-1.20;99.90
23186;DHT22;11761;51.324;4.590;2023-03-01T07:42:23;-1.20;99.90
23186;DHT22;11761;51.324;4.590;2023-03-01T07:44:49;-1.10;99.90
23186;DHT22;11761;51.324;4.590;2023-03-01T07:47:15;-0.90;99.90
23186;DHT22;11761;51.324;4.590;2023-03-01T07:49:41;-0.70;99.90
23186;DHT22;11761;51.324;4.590;2023-03-01T07:52:10;-0.60;99.90
23186;DHT22;11761;51.324;4.590;2023-03-01T07:54:37;-0.60;99.90
23186;DHT22;11761;51.324;4.590;2023-03-01T07:57:03;-0.50;99.90
23186;DHT22;11761;51.324;4.590;2023-03-01T07:59:31;-0.50;99.90
23186;DHT22;11761;51.324;4.590;2023-03-01T08:01:57;-0.10;99.90
23186;DHT22;11761;51.324;4.590;2023-03-01T08:04:23;0.30;99.90
23186;DHT22;11761;51.324;4.590;2023-03-01T08:06:54;0.60;99.90
23186;DHT22;11761;51.324;4.590;2023-03-01T08:09:21;1.20;99.90
23186;DHT22;11761;51.324;4.590;2023-03-01T08:11:47;1.80;99.90
23186;DHT22;11761;51.324;4.590;2023-03-01T08:14:13;1.70;99.90
23186;DHT22;11761;51.324;4.590;2023-03-01T08:16:39;1.30;99.90
23186;DHT22;11761;51.324;4.590;2023-03-01T08:26:44;1.20;99.90
23186;DHT22;11761;51.324;4.590;2023-03-01T08:29:10;1.10;99.90
23186;DHT22;11761;51.324;4.590;2023-03-01T08:31:39;1.20;99.90
23186;DHT22;11761;51.324;4.590;2023-03-01T08:34:11;1.40;99.90
23186;DHT22;11761;51.324;4.590;2023-03-01T08:36:40;1.30;99.90
23186;DHT22;11761;51.324;4.590;2023-03-01T08:39:09;1.60;99.90
23186;DHT22;11761;51.324;4.590;2023-03-01T08:41:36;2.50;99.90
23186;DHT22;11761;51.324;4.590;2023-03-01T08:44:02;2.50;99.90
23186;DHT22;11761;51.324;4.590;2023-03-01T08:46:33;2.00;99.90
23186;DHT22;11761;51.324;4.590;2023-03-01T08:49:00;2.30;99.90
23186;DHT22;11761;51.324;4.590;2023-03-01T08:55:19;4.30;99.90
23186;DHT22;11761;51.324;4.590;2023-03-01T08:57:46;4.90;99.90
23186;DHT22;11761;51.324;4.590;2023-03-01T09:04:10;4.80;99.90
23186;DHT22;11761;51.324;4.590;2023-03-01T09:06:39;3.40;99.90
23186;DHT22;11761;51.324;4.590;2023-03-01T09:09:05;3.20;99.90
23186;DHT22;11761;51.324;4.590;2023-03-01T09:11:32;3.70;99.90
23186;DHT22;11761;51.324;4.590;2023-03-01T09:13:59;3.70;99.90
23186;DHT22;11761;51.324;4.590;2023-03-01T09:16:25;3.90;99.90
23186;DHT22;11761;51.324;4.590;2023-03-01T09:18:53;3.50;99.90
23186;DHT22;11761;51.324;4.590;2023-03-01T09:21:21;4.00;99.90
23186;DHT22;11761;51.324;4.590;2023-03-01T09:23:49;4.00;99.90
23186;DHT22;11761;51.324;4.590;2023-03-01T09:26:20;4.10;99.90
23186;DHT22;11761;51.324;4.590;2023-03-01T09:32:12;5.60;99.90
23186;DHT22;11761;51.324;4.590;2023-03-01T09:35:00;5.10;99.90
23186;DHT22;11761;51.324;4.590;2023-03-01T09:37:29;5.70;99.90
23186;DHT22;11761;51.324;4.590;2023-03-01T09:39:55;6.00;99.90
23186;DHT22;11761;51.324;4.590;2023-03-01T09:42:21;6.00;99.90
23186;DHT22;11761;51.324;4.590;2023-03-01T09:48:38;5.90;99.90
23186;DHT22;11761;51.324;4.590;2023-03-01T09:51:15;5.50;99.90
23186;DHT22;11761;51.324;4.590;2023-03-01T09:53:43;6.30;99.90
23186;DHT22;11761;51.324;4.590;2023-03-01T09:59:04;6.00;99.90
23186;DHT22;11761;51.324;4.590;2023-03-01T10:01:38;5.70;99.90
23186;DHT22;11761;51.324;4.590;2023-03-01T10:07:21;4.80;99.90
23186;DHT22;11761;51.324;4.590;2023-03-01T10:09:52;4.90;99.90
23186;DHT22;11761;51.324;4.590;2023-03-01T10:23:32;5.50;99.90
23186;DHT22;11761;51.324;4.590;2023-03-01T10:37:22;5.20;99.90
23186;DHT22;11761;51.324;4.590;2023-03-01T10:40:08;5.40;99.90
23186;DHT22;11761;51.324;4.590;2023-03-01T10:42:39;5.60;99.90
23186;DHT22;11761;51.324;4.590;2023-03-01T10:48:18;5.30;99.90
23186;DHT22;11761;51.324;4.590;2023-03-01T10:51:04;5.30;99.90
23186;DHT22;11761;51.324;4.590;2023-03-01T10:53:42;5.80;99.90
23186;DHT22;11761;51.324;4.590;2023-03-01T10:56:14;5.20;99.90
23186;DHT22;11761;51.324;4.590;2023-03-01T11:06:36;5.50;99.90
23186;DHT22;11761;51.324;4.590;2023-03-01T11:09:19;6.00;99.90
23186;DHT22;11761;51.324;4.590;2023-03-01T11:11:46;6.10;99.90
23186;DHT22;11761;51.324;4.590;2023-03-01T11:14:16;5.80;99.90
23186;DHT22;11761;51.324;4.590;2023-03-01T11:16:45;6.80;99.90
23186;DHT22;11761;51.324;4.590;2023-03-01T11:22:02;6.90;99.90
23186;DHT22;11761;51.324;4.590;2023-03-01T11:24:34;6.50;99.90
23186;DHT22;11761;51.324;4.590;2023-03-01T11:27:03;6.50;99.90
23186;DHT22;11761;51.324;4.590;2023-03-01T11:30:01;6.30;99.90
23186;DHT22;11761;51.324;4.590;2023-03-01T11:32:48;6.30;99.90
23186;DHT22;11761;51.324;4.590;2023-03-01T11:35:22;6.30;99.90
23186;DHT22;11761;51.324;4.590;2023-03-01T11:38:21;6.30;99.90
23186;DHT22;11761;51.324;4.590;2023-03-01T11:41:06;6.40;99.90
23186;DHT22;11761;51.324;4.590;2023-03-01T11:43:52;6.50;99.90
23186;DHT22;11761;51.324;4.590;2023-03-01T12:11:52;7.20;99.90
23186;DHT22;11761;51.324;4.590;2023-03-01T12:17:15;9.00;99.90
23186;DHT22;11761;51.324;4.590;2023-03-01T12:23:01;8.50;99.90
23186;DHT22;11761;51.324;4.590;2023-03-01T12:47:04;8.40;99.90
23186;DHT22;11761;51.324;4.590;2023-03-01T12:49:38;7.20;99.90
23186;DHT22;11761;51.324;4.590;2023-03-01T12:52:53;7.70;99.90
23186;DHT22;11761;51.324;4.590;2023-03-01T12:55:36;8.00;99.90
23186;DHT22;11761;51.324;4.590;2023-03-01T13:04:20;8.00;99.90
23186;DHT22;11761;51.324;4.590;2023-03-01T13:09:59;7.60;99.90
23186;DHT22;11761;51.324;4.590;2023-03-01T13:18:00;8.20;99.90
23186;DHT22;11761;51.324;4.590;2023-03-01T13:20:29;8.70;99.90
23186;DHT22;11761;51.324;4.590;2023-03-01T13:26:03;9.20;99.50
23186;DHT22;11761;51.324;4.590;2023-03-01T13:38:58;8.10;99.50
23186;DHT22;11761;51.324;4.590;2023-03-01T13:44:24;8.80;99.70
23186;DHT22;11761;51.324;4.590;2023-03-01T13:46:56;9.40;98.10
23186;DHT22;11761;51.324;4.590;2023-03-01T13:49:27;8.50;98.40
23186;DHT22;11761;51.324;4.590;2023-03-01T13:51:53;8.80;99.00
23186;DHT22;11761;51.324;4.590;2023-03-01T13:54:29;9.60;97.80
23186;DHT22;11761;51.324;4.590;2023-03-01T13:56:59;9.30;96.50
23186;DHT22;11761;51.324;4.590;2023-03-01T13:59:27;8.50;97.80
23186;DHT22;11761;51.324;4.590;2023-03-01T14:01:57;8.90;97.60
23186;DHT22;11761;51.324;4.590;2023-03-01T14:04:30;9.60;98.00
23186;DHT22;11761;51.324;4.590;2023-03-01T14:09:53;9.30;96.80
23186;DHT22;11761;51.324;4.590;2023-03-01T14:15:32;9.00;95.90
23186;DHT22;11761;51.324;4.590;2023-03-01T14:18:12;9.30;96.50
23186;DHT22;11761;51.324;4.590;2023-03-01T14:20:45;9.50;95.70
23186;DHT22;11761;51.324;4.590;2023-03-01T14:23:21;7.90;96.50
23186;DHT22;11761;51.324;4.590;2023-03-01T14:25:51;8.20;97.00
23186;DHT22;11761;51.324;4.590;2023-03-01T14:30:47;8.40;98.00
23186;DHT22;11761;51.324;4.590;2023-03-01T14:33:27;8.20;96.80
23186;DHT22;11761;51.324;4.590;2023-03-01T14:41:07;8.20;97.10
23186;DHT22;11761;51.324;4.590;2023-03-01T14:43:40;7.90;97.90
23186;DHT22;11761;51.324;4.590;2023-03-01T14:46:20;8.10;98.30
23186;DHT22;11761;51.324;4.590;2023-03-01T14:49:02;8.80;97.60
23186;DHT22;11761;51.324;4.590;2023-03-01T14:51:28;8.50;97.20
23186;DHT22;11761;51.324;4.590;2023-03-01T14:53:55;8.50;96.70
23186;DHT22;11761;51.324;4.590;2023-03-01T14:56:21;8.80;97.10
23186;DHT22;11761;51.324;4.590;2023-03-01T14:58:52;8.80;96.30
23186;DHT22;11761;51.324;4.590;2023-03-01T15:01:19;8.50;96.30
23186;DHT22;11761;51.324;4.590;2023-03-01T15:03:49;8.20;97.50
23186;DHT22;11761;51.324;4.590;2023-03-01T15:06:22;8.30;96.50
23186;DHT22;11761;51.324;4.590;2023-03-01T15:08:53;7.90;97.00
23186;DHT22;11761;51.324;4.590;2023-03-01T15:11:30;7.90;97.30
23186;DHT22;11761;51.324;4.590;2023-03-01T15:13:58;7.40;98.20
23186;DHT22;11761;51.324;4.590;2023-03-01T15:16:32;7.10;98.20
23186;DHT22;11761;51.324;4.590;2023-03-01T15:19:04;7.00;98.80
23186;DHT22;11761;51.324;4.590;2023-03-01T15:21:36;6.80;99.00
23186;DHT22;11761;51.324;4.590;2023-03-01T15:26:57;6.70;99.80
23186;DHT22;11761;51.324;4.590;2023-03-01T16:32:31;5.80;99.90
23186;DHT22;11761;51.324;4.590;2023-03-01T16:35:01;5.80;99.90
23186;DHT22;11761;51.324;4.590;2023-03-01T16:37:33;5.70;99.90
23186;DHT22;11761;51.324;4.590;2023-03-01T16:40:00;5.70;99.90
23186;DHT22;11761;51.324;4.590;2023-03-01T16:42:34;5.60;99.90
23186;DHT22;11761;51.324;4.590;2023-03-01T16:45:00;5.50;99.90
23186;DHT22;11761;51.324;4.590;2023-03-01T16:47:28;5.40;99.90
23186;DHT22;11761;51.324;4.590;2023-03-01T16:49:55;5.30;99.90
23186;DHT22;11761;51.324;4.590;2023-03-01T17:27:38;4.30;99.90
23186;DHT22;11761;51.324;4.590;2023-03-01T18:25:20;1.20;99.90
23186;DHT22;11761;51.324;4.590;2023-03-01T18:27:47;0.90;99.90
23186;DHT22;11761;51.324;4.590;2023-03-01T18:30:14;0.80;99.90
23186;DHT22;11761;51.324;4.590;2023-03-01T18:32:40;0.90;99.90
23186;DHT22;11761;51.324;4.590;2023-03-01T18:35:07;0.70;99.90
23186;DHT22;11761;51.324;4.590;2023-03-01T18:37:33;0.60;99.90
23186;DHT22;11761;51.324;4.590;2023-03-01T18:39:59;0.40;99.90
23186;DHT22;11761;51.324;4.590;2023-03-01T18:53:40;-0.10;99.90
23186;DHT22;11761;51.324;4.590;2023-03-01T18:56:08;-0.20;99.90
23186;DHT22;11761;51.324;4.590;2023-03-01T18:58:35;-0.30;99.90
23186;DHT22;11761;51.324;4.590;2023-03-01T19:01:02;-0.30;99.90
23186;DHT22;11761;51.324;4.590;2023-03-01T19:03:31;-0.40;99.90
23186;DHT22;11761;51.324;4.590;2023-03-01T19:05:57;-0.40;99.90
23186;DHT22;11761;51.324;4.590;2023-03-01T19:08:26;-0.40;99.90
23186;DHT22;11761;51.324;4.590;2023-03-01T19:10:59;-0.50;99.90
23186;DHT22;11761;51.324;4.590;2023-03-01T19:13:28;-0.50;99.90
23186;DHT22;11761;51.324;4.590;2023-03-01T19:16:22;-0.60;99.90
23186;DHT22;11761;51.324;4.590;2023-03-01T19:18:48;-0.60;99.90
23186;DHT22;11761;51.324;4.590;2023-03-01T19:21:18;-0.60;99.90
23186;DHT22;11761;51.324;4.590;2023-03-01T19:27:26;-0.70;99.90
23186;DHT22;11761;51.324;4.590;2023-03-01T19:30:19;-0.70;99.90
23186;DHT22;11761;51.324;4.590;2023-03-01T19:48:33;-0.70;99.90
23186;DHT22;11761;51.324;4.590;2023-03-01T19:51:19;-0.70;99.90
23186;DHT22;11761;51.324;4.590;2023-03-01T19:53:46;-0.80;99.90
23186;DHT22;11761;51.324;4.590;2023-03-01T19:56:47;-0.80;99.90
23186;DHT22;11761;51.324;4.590;2023-03-01T20:03:24;-0.80;99.90
23186;DHT22;11761;51.324;4.590;2023-03-01T20:21:20;0.60;99.90
23186;DHT22;11761;51.324;4.590;2023-03-01T20:23:47;0.70;99.90
23186;DHT22;11761;51.324;4.590;2023-03-01T20:26:15;0.60;99.90
23186;DHT22;11761;51.324;4.590;2023-03-01T20:32:26;0.70;99.90
23186;DHT22;11761;51.324;4.590;2023-03-01T20:34:52;1.20;99.90
23186;DHT22;11761;51.324;4.590;2023-03-01T20:37:21;1.60;99.90
23186;DHT22;11761;51.324;4.590;2023-03-01T20:39:48;1.70;99.90
23186;DHT22;11761;51.324;4.590;2023-03-01T20:42:15;1.50;99.90
23186;DHT22;11761;51.324;4.590;2023-03-01T20:44:41;1.60;99.90
23186;DHT22;11761;51.324;4.590;2023-03-01T20:47:10;1.60;99.90
23186;DHT22;11761;51.324;4.590;2023-03-01T20:49:37;1.40;99.90
23186;DHT22;11761;51.324;4.590;2023-03-01T20:52:03;1.20;99.90
23186;DHT22;11761;51.324;4.590;2023-03-01T20:54:29;1.10;99.90
23186;DHT22;11761;51.324;4.590;2023-03-01T20:56:56;0.80;99.90
23186;DHT22;11761;51.324;4.590;2023-03-01T20:59:23;0.60;99.90
23186;DHT22;11761;51.324;4.590;2023-03-01T21:01:50;0.30;99.90
23186;DHT22;11761;51.324;4.590;2023-03-01T21:04:18;0.40;99.90
23186;DHT22;11761;51.324;4.590;2023-03-01T21:06:44;0.40;99.90
23186;DHT22;11761;51.324;4.590;2023-03-01T21:09:11;0.30;99.90
23186;DHT22;11761;51.324;4.590;2023-03-01T21:11:38;0.50;99.90
23186;DHT22;11761;51.324;4.590;2023-03-01T21:14:04;0.60;99.90
23186;DHT22;11761;51.324;4.590;2023-03-01T21:16:31;0.70;99.90
23186;DHT22;11761;51.324;4.590;2023-03-01T21:18:58;1.10;99.90
23186;DHT22;11761;51.324;4.590;2023-03-01T21:21:29;1.00;99.90
23186;DHT22;11761;51.324;4.590;2023-03-01T21:23:55;1.10;99.90
23186;DHT22;11761;51.324;4.590;2023-03-01T21:26:24;0.90;99.90
23186;DHT22;11761;51.324;4.590;2023-03-01T21:28:58;0.70;99.90
23186;DHT22;11761;51.324;4.590;2023-03-01T21:31:29;1.00;99.90
23186;DHT22;11761;51.324;4.590;2023-03-01T21:33:58;1.00;99.90
23186;DHT22;11761;51.324;4.590;2023-03-01T21:36:27;0.80;99.90
23186;DHT22;11761;51.324;4.590;2023-03-01T21:38:54;0.70;99.90
23186;DHT22;11761;51.324;4.590;2023-03-01T21:41:25;0.50;99.90
23186;DHT22;11761;51.324;4.590;2023-03-01T21:43:55;0.20;99.90
23186;DHT22;11761;51.324;4.590;2023-03-01T21:46:24;0.00;99.90
23186;DHT22;11761;51.324;4.590;2023-03-01T21:48:52;-0.10;99.90
23186;DHT22;11761;51.324;4.590;2023-03-01T21:51:20;-0.20;99.90
23186;DHT22;11761;51.324;4.590;2023-03-01T21:53:46;-0.30;99.90
23186;DHT22;11761;51.324;4.590;2023-03-01T21:56:18;-0.40;99.90
23186;DHT22;11761;51.324;4.590;2023-03-01T21:58:44;-0.20;99.90
23186;DHT22;11761;51.324;4.590;2023-03-01T22:01:13;-0.30;99.90
23186;DHT22;11761;51.324;4.590;2023-03-01T22:03:39;-0.40;99.90
23186;DHT22;11761;51.324;4.590;2023-03-01T22:06:15;-0.30;99.90
23186;DHT22;11761;51.324;4.590;2023-03-01T22:08:54;-0.20;99.90
23186;DHT22;11761;51.324;4.590;2023-03-01T22:11:21;-0.20;99.90
23186;DHT22;11761;51.324;4.590;2023-03-01T22:13:49;-0.10;99.90
23186;DHT22;11761;51.324;4.590;2023-03-01T22:16:18;-0.10;99.90
23186;DHT22;11761;51.324;4.590;2023-03-01T22:18:45;0.30;99.90
23186;DHT22;11761;51.324;4.590;2023-03-01T22:21:12;0.20;99.90
23186;DHT22;11761;51.324;4.590;2023-03-01T22:23:39;0.10;99.90
23186;DHT22;11761;51.324;4.590;2023-03-01T22:26:06;0.10;99.90
23186;DHT22;11761;51.324;4.590;2023-03-01T22:28:33;0.40;99.90
23186;DHT22;11761;51.324;4.590;2023-03-01T22:31:05;0.40;99.90
23186;DHT22;11761;51.324;4.590;2023-03-01T22:33:31;0.40;99.90
23186;DHT22;11761;51.324;4.590;2023-03-01T22:35:58;0.40;99.90
23186;DHT22;11761;51.324;4.590;2023-03-01T22:38:24;0.20;99.90
23186;DHT22;11761;51.324;4.590;2023-03-01T22:41:00;0.10;99.90
23186;DHT22;11761;51.324;4.590;2023-03-01T22:43:26;0.30;99.90
23186;DHT22;11761;51.324;4.590;2023-03-01T22:45:52;0.20;99.90
23186;DHT22;11761;51.324;4.590;2023-03-01T22:48:18;0.30;99.90
23186;DHT22;11761;51.324;4.590;2023-03-01T22:50:46;0.40;99.90
23186;DHT22;11761;51.324;4.590;2023-03-01T22:53:13;0.40;99.90
23186;DHT22;11761;51.324;4.590;2023-03-01T22:55:39;0.60;99.90
23186;DHT22;11761;51.324;4.590;2023-03-01T22:58:05;0.50;99.90
23186;DHT22;11761;51.324;4.590;2023-03-01T23:00:32;0.70;99.90
23186;DHT22;11761;51.324;4.590;2023-03-01T23:02:58;0.50;99.90
23186;DHT22;11761;51.324;4.590;2023-03-01T23:05:24;0.70;99.90
23186;DHT22;11761;51.324;4.590;2023-03-01T23:07:50;0.50;99.90
23186;DHT22;11761;51.324;4.590;2023-03-01T23:10:17;0.40;99.90
23186;DHT22;11761;51.324;4.590;2023-03-01T23:12:43;0.60;99.90
23186;DHT22;11761;51.324;4.590;2023-03-01T23:15:11;0.50;99.90
23186;DHT22;11761;51.324;4.590;2023-03-01T23:17:37;0.40;99.90
23186;DHT22;11761;51.324;4.590;2023-03-01T23:20:05;0.40;99.90
23186;DHT22;11761;51.324;4.590;2023-03-01T23:22:39;0.30;99.90
23186;DHT22;11761;51.324;4.590;2023-03-01T23:25:08;0.00;99.90
23186;DHT22;11761;51.324;4.590;2023-03-01T23:27:37;0.10;99.90
23186;DHT22;11761;51.324;4.590;2023-03-01T23:30:05;-0.10;99.90
23186;DHT22;11761;51.324;4.590;2023-03-01T23:32:31;0.00;99.90
23186;DHT22;11761;51.324;4.590;2023-03-01T23:34:57;0.00;99.90
23186;DHT22;11761;51.324;4.590;2023-03-01T23:37:29;0.00;99.90
23186;DHT22;11761;51.324;4.590;2023-03-01T23:39:55;-0.30;99.90
23186;DHT22;11761;51.324;4.590;2023-03-01T23:42:21;-0.40;99.90
23186;DHT22;11761;51.324;4.590;2023-03-01T23:44:46;-0.70;99.90
23186;DHT22;11761;51.324;4.590;2023-03-01T23:47:13;-0.80;99.90